createdAt,value
2019-05-19T00:01:17.019Z,45.93
2019-05-19T00:02:51.468Z,43.47
2019-05-19T00:04:26.478Z,48.47
2019-05-19T00:06:00.837Z,44.37
2019-05-19T00:07:35.838Z,41.80
2019-05-19T00:09:10.295Z,42.43
2019-05-19T00:10:45.186Z,40.20
2019-05-19T00:12:19.534Z,43.17
2019-05-19T00:13:54.448Z,39.80
2019-05-19T00:15:28.922Z,38.17
2019-05-19T00:17:03.842Z,40.90
2019-05-19T00:18:38.201Z,38.93
2019-05-19T00:20:13.317Z,38.77
2019-05-19T00:21:47.966Z,40.47
2019-05-19T00:23:23.308Z,39.03
2019-05-19T00:24:57.654Z,38.33
2019-05-19T00:26:32.601Z,42.17
2019-05-19T00:28:07.105Z,48.27
2019-05-19T00:29:42.375Z,38.37
2019-05-19T00:31:16.750Z,42.17
2019-05-19T00:32:51.686Z,43.63
2019-05-19T00:34:26.045Z,44.77
2019-05-19T00:36:00.962Z,44.70
2019-05-19T00:37:35.368Z,45.57
2019-05-19T00:39:10.291Z,38.70
2019-05-19T00:40:44.721Z,39.93
2019-05-19T00:42:19.634Z,37.60
2019-05-19T00:43:54.470Z,38.33
2019-05-19T00:45:29.386Z,41.03
2019-05-19T00:47:03.857Z,41.13
2019-05-19T00:48:38.798Z,38.23
2019-05-19T00:50:13.395Z,36.97
2019-05-19T00:51:48.597Z,36.30
2019-05-19T00:53:23.171Z,38.30
2019-05-19T00:54:58.078Z,37.17
2019-05-19T00:56:33.055Z,39.20
2019-05-19T00:58:08.882Z,38.40
2019-05-19T00:59:43.934Z,39.23
2019-05-19T01:01:19.002Z,37.70
2019-05-19T01:02:53.660Z,36.60
2019-05-19T01:04:28.589Z,40.13
2019-05-19T01:06:02.961Z,38.00
2019-05-19T01:07:38.231Z,38.53
2019-05-19T01:09:12.857Z,39.27
2019-05-19T01:10:47.824Z,39.80
2019-05-19T01:12:22.598Z,38.43
2019-05-19T01:13:57.743Z,38.10
2019-05-19T01:15:32.118Z,36.27
2019-05-19T01:17:07.020Z,38.10
2019-05-19T01:18:41.445Z,43.03
2019-05-19T01:20:16.721Z,37.03
2019-05-19T01:21:51.185Z,40.00
2019-05-19T01:23:26.370Z,40.43
2019-05-19T01:25:00.755Z,39.30
2019-05-19T01:26:36.022Z,38.43
2019-05-19T01:28:10.675Z,41.97
2019-05-19T01:29:45.586Z,40.60
2019-05-19T01:31:19.967Z,39.70
2019-05-19T01:32:55.197Z,42.60
2019-05-19T01:34:29.562Z,44.73
2019-05-19T01:36:04.570Z,43.03
2019-05-19T01:37:38.954Z,43.63
2019-05-19T01:39:14.202Z,46.40
2019-05-19T01:40:48.833Z,45.37
2019-05-19T01:42:24.086Z,44.10
2019-05-19T01:43:58.862Z,42.67
2019-05-19T01:45:33.905Z,45.10
2019-05-19T01:47:08.281Z,40.63
2019-05-19T01:48:43.194Z,42.50
2019-05-19T01:50:18.650Z,39.80
2019-05-19T01:51:53.988Z,43.47
2019-05-19T01:53:28.871Z,38.37
2019-05-19T01:55:03.926Z,44.80
2019-05-19T01:56:38.305Z,43.33
2019-05-19T01:58:13.558Z,43.07
2019-05-19T01:59:48.204Z,42.60
2019-05-19T02:01:23.101Z,41.20
2019-05-19T02:02:57.458Z,39.93
2019-05-19T02:04:32.390Z,39.03
2019-05-19T02:06:06.838Z,39.27
2019-05-19T02:07:42.128Z,39.90
2019-05-19T02:09:16.549Z,39.50
2019-05-19T02:10:51.570Z,41.80
2019-05-19T02:12:25.955Z,41.50
2019-05-19T02:14:01.456Z,38.17
2019-05-19T02:15:35.875Z,39.17
2019-05-19T02:17:11.274Z,39.60
2019-05-19T02:18:46.102Z,40.43
2019-05-19T02:20:32.652Z,40.60
2019-05-19T02:21:57.483Z,35.80
2019-05-19T02:23:32.402Z,40.20
2019-05-19T02:25:07.281Z,37.73
2019-05-19T02:26:42.257Z,38.07
2019-05-19T02:28:16.906Z,43.27
2019-05-19T02:29:51.882Z,41.63
2019-05-19T02:31:26.272Z,42.73
2019-05-19T02:33:01.232Z,40.60
2019-05-19T02:34:35.650Z,42.03
2019-05-19T02:36:10.542Z,38.97
2019-05-19T02:37:45.511Z,40.33
2019-05-19T02:39:20.432Z,42.70
2019-05-19T02:40:56.495Z,40.07
2019-05-19T02:42:33.736Z,41.63
2019-05-19T02:44:08.904Z,46.37
2019-05-19T02:45:44.746Z,42.70
2019-05-19T02:47:20.907Z,42.90
2019-05-19T02:48:57.312Z,43.30
2019-05-19T02:50:50.802Z,41.37
2019-05-19T02:52:15.440Z,42.10
2019-05-19T02:53:50.870Z,42.80
2019-05-19T02:55:27.619Z,43.17
2019-05-19T02:57:04.053Z,41.30
2019-05-19T02:58:40.115Z,39.63
2019-05-19T03:00:14.890Z,40.93
2019-05-19T03:02:03.509Z,38.57
2019-05-19T03:03:38.763Z,44.30
2019-05-19T03:05:13.511Z,40.10
2019-05-19T03:06:48.433Z,41.30
2019-05-19T03:08:22.823Z,38.63
2019-05-19T03:09:57.807Z,39.70
2019-05-19T03:11:32.288Z,44.90
2019-05-19T03:13:07.304Z,39.20
2019-05-19T03:14:41.774Z,41.00
2019-05-19T03:16:16.708Z,42.57
2019-05-19T03:17:51.092Z,37.17
2019-05-19T03:19:26.082Z,38.43
2019-05-19T03:21:10.550Z,39.10
2019-05-19T03:22:37.107Z,39.00
2019-05-19T03:24:11.580Z,36.53
2019-05-19T03:25:46.637Z,40.47
2019-05-19T03:27:21.068Z,36.30
2019-05-19T03:28:56.003Z,38.27
2019-05-19T03:30:42.205Z,36.90
2019-05-19T03:32:39.446Z,35.50
2019-05-19T03:34:15.123Z,35.37
2019-05-19T03:35:49.478Z,35.77
2019-05-19T03:37:24.403Z,36.17
2019-05-19T03:38:59.147Z,38.43
2019-05-19T03:40:34.155Z,37.13
2019-05-19T03:42:10.519Z,34.53
2019-05-19T03:43:45.619Z,37.37
2019-05-19T03:45:20.131Z,37.10
2019-05-19T03:46:55.290Z,34.93
2019-05-19T03:48:29.750Z,33.43
2019-05-19T03:50:04.792Z,36.60
2019-05-19T03:51:39.572Z,36.37
2019-05-19T03:53:14.770Z,35.73
2019-05-19T03:54:49.480Z,37.63
2019-05-19T03:56:24.401Z,40.60
2019-05-19T03:57:58.790Z,36.07
2019-05-19T03:59:33.718Z,36.90
2019-05-19T04:01:08.367Z,33.20
2019-05-19T04:02:43.303Z,36.50
2019-05-19T04:04:18.060Z,37.17
2019-05-19T04:05:52.979Z,35.17
2019-05-19T04:07:27.386Z,32.10
2019-05-19T04:09:02.376Z,34.63
2019-05-19T04:10:36.790Z,35.17
2019-05-19T04:12:12.074Z,31.27
2019-05-19T04:13:46.480Z,32.87
2019-05-19T04:15:21.527Z,35.37
2019-05-19T04:16:55.976Z,33.03
2019-05-19T04:18:30.909Z,31.23
2019-05-19T04:20:05.652Z,34.30
2019-05-19T04:21:48.778Z,33.50
2019-05-19T04:23:17.066Z,34.93
2019-05-19T04:24:52.094Z,32.80
2019-05-19T04:26:26.937Z,36.43
2019-05-19T04:28:01.874Z,34.40
2019-05-19T04:29:39.341Z,32.10
2019-05-19T04:31:12.984Z,30.23
2019-05-19T04:32:47.352Z,31.83
2019-05-19T04:34:22.368Z,30.50
2019-05-19T04:35:57.618Z,31.50
2019-05-19T04:37:32.759Z,29.53
2019-05-19T04:39:07.992Z,30.40
2019-05-19T04:40:43.773Z,30.83
2019-05-19T04:42:18.179Z,30.57
2019-05-19T04:43:53.203Z,29.70
2019-05-19T04:45:27.800Z,27.90
2019-05-19T04:47:02.718Z,28.80
2019-05-19T04:48:37.155Z,28.67
2019-05-19T04:50:12.231Z,28.30
2019-05-19T04:51:46.778Z,30.73
2019-05-19T04:53:21.776Z,26.63
2019-05-19T04:54:56.704Z,27.97
2019-05-19T04:56:31.642Z,27.70
2019-05-19T04:58:06.153Z,28.40
2019-05-19T04:59:41.070Z,25.23
2019-05-19T05:01:15.467Z,26.67
2019-05-19T05:02:50.475Z,24.03
2019-05-19T05:04:29.027Z,21.67
2019-05-19T05:06:01.607Z,24.53
2019-05-19T05:07:35.981Z,24.33
2019-05-19T05:09:10.908Z,23.20
2019-05-19T05:10:45.369Z,25.57
2019-05-19T05:12:20.573Z,21.20
2019-05-19T05:13:55.279Z,22.20
2019-05-19T05:15:30.226Z,24.00
2019-05-19T05:17:04.710Z,21.73
2019-05-19T05:18:39.911Z,23.90
2019-05-19T05:20:14.715Z,22.80
2019-05-19T05:21:49.670Z,22.10
2019-05-19T05:23:24.041Z,22.03
2019-05-19T05:24:59.123Z,22.03
2019-05-19T05:26:33.543Z,22.83
2019-05-19T05:28:08.497Z,21.40
2019-05-19T05:29:43.217Z,22.90
2019-05-19T05:31:18.204Z,21.20
2019-05-19T05:32:52.604Z,22.60
2019-05-19T05:34:30.179Z,22.30
2019-05-19T05:36:05.387Z,24.10
2019-05-19T05:37:40.326Z,22.70
2019-05-19T05:39:15.043Z,22.47
2019-05-19T05:40:50.187Z,21.70
2019-05-19T05:42:24.583Z,19.43
2019-05-19T05:43:59.502Z,18.73
2019-05-19T05:45:34.533Z,19.63
2019-05-19T05:47:09.488Z,16.43
2019-05-19T05:48:43.850Z,17.97
2019-05-19T05:50:18.771Z,17.50
2019-05-19T05:51:53.167Z,18.63
2019-05-19T05:53:28.351Z,16.93
2019-05-19T05:55:02.885Z,17.07
2019-05-19T05:56:38.212Z,16.77
2019-05-19T05:58:12.879Z,15.77
2019-05-19T05:59:47.911Z,17.27
2019-05-19T06:01:22.370Z,16.67
2019-05-19T06:02:57.310Z,14.87
2019-05-19T06:04:31.675Z,16.53
2019-05-19T06:06:06.629Z,16.23
2019-05-19T06:07:41.254Z,14.17
2019-05-19T06:09:16.306Z,15.90
2019-05-19T06:10:50.696Z,14.40
2019-05-19T06:12:25.895Z,14.37
2019-05-19T06:14:00.348Z,13.63
2019-05-19T06:15:35.311Z,13.87
2019-05-19T06:17:09.810Z,13.43
2019-05-19T06:18:44.732Z,13.70
2019-05-19T06:20:19.583Z,14.10
2019-05-19T06:21:55.358Z,13.47
2019-05-19T06:23:30.157Z,12.57
2019-05-19T06:25:06.789Z,13.10
2019-05-19T06:26:41.606Z,13.33
2019-05-19T06:28:17.135Z,13.67
2019-05-19T06:29:51.917Z,12.90
2019-05-19T06:31:27.472Z,12.57
2019-05-19T06:33:03.973Z,12.03
2019-05-19T06:34:39.504Z,12.40
2019-05-19T06:36:14.472Z,11.77
2019-05-19T06:37:50.005Z,11.60
2019-05-19T06:39:24.877Z,12.37
2019-05-19T06:41:00.441Z,12.23
2019-05-19T06:42:35.358Z,14.07
2019-05-19T06:44:11.208Z,13.53
2019-05-19T06:45:46.020Z,11.63
2019-05-19T06:47:21.545Z,12.10
2019-05-19T06:48:56.355Z,12.60
2019-05-19T06:50:32.175Z,12.30
2019-05-19T06:52:06.981Z,11.80
2019-05-19T06:53:42.763Z,10.73
2019-05-19T06:55:17.935Z,10.27
2019-05-19T06:56:53.458Z,11.07
2019-05-19T06:58:28.329Z,11.23
2019-05-19T07:00:03.923Z,11.07
2019-05-19T07:01:38.731Z,10.17
2019-05-19T07:03:14.323Z,10.30
2019-05-19T07:04:49.118Z,10.47
2019-05-19T07:06:24.665Z,10.77
2019-05-19T07:07:59.475Z,11.70
2019-05-19T07:09:34.465Z,10.40
2019-05-19T07:11:09.269Z,10.37
2019-05-19T07:12:45.081Z,11.60
2019-05-19T07:14:19.890Z,10.30
2019-05-19T07:15:55.685Z,10.30
2019-05-19T07:17:30.966Z,10.23
2019-05-19T07:19:06.552Z,9.70
2019-05-19T07:20:41.623Z,9.97
2019-05-19T07:22:17.652Z,9.50
2019-05-19T07:23:52.423Z,9.43
2019-05-19T07:25:27.981Z,10.67
2019-05-19T07:27:03.257Z,9.43
2019-05-19T07:28:39.294Z,10.50
2019-05-19T07:30:15.628Z,9.50
2019-05-19T07:31:50.593Z,10.20
2019-05-19T07:33:25.337Z,9.93
2019-05-19T07:35:00.649Z,8.97
2019-05-19T07:36:35.299Z,10.33
2019-05-19T07:38:10.435Z,10.40
2019-05-19T07:39:44.838Z,9.73
2019-05-19T07:41:20.017Z,9.57
2019-05-19T07:42:54.371Z,9.13
2019-05-19T07:44:29.924Z,9.50
2019-05-19T07:46:05.080Z,9.60
2019-05-19T07:47:40.692Z,8.63
2019-05-19T07:49:15.942Z,9.13
2019-05-19T07:50:52.348Z,9.30
2019-05-19T07:52:27.318Z,9.37
2019-05-19T07:54:02.665Z,9.40
2019-05-19T07:55:37.629Z,9.30
2019-05-19T07:57:13.247Z,10.33
2019-05-19T07:58:48.479Z,10.47
2019-05-19T08:00:23.810Z,10.90
2019-05-19T08:01:58.801Z,10.03
2019-05-19T08:03:34.150Z,10.17
2019-05-19T08:05:09.534Z,10.77
2019-05-19T08:06:45.182Z,10.57
2019-05-19T08:08:20.147Z,10.23
2019-05-19T08:09:55.485Z,10.80
2019-05-19T08:11:30.540Z,10.20
2019-05-19T08:13:05.933Z,10.40
2019-05-19T08:14:40.906Z,9.70
2019-05-19T08:16:16.770Z,10.03
2019-05-19T08:17:51.822Z,10.63
2019-05-19T08:19:27.191Z,10.80
2019-05-19T08:21:02.525Z,11.07
2019-05-19T08:22:37.862Z,10.60
2019-05-19T08:24:13.109Z,10.80
2019-05-19T08:25:48.975Z,10.77
2019-05-19T08:27:24.030Z,10.60
2019-05-19T08:28:59.383Z,10.60
2019-05-19T08:30:34.466Z,11.80
2019-05-19T08:32:09.788Z,10.70
2019-05-19T08:33:45.045Z,9.63
2019-05-19T08:35:20.373Z,10.30
2019-05-19T08:36:55.406Z,11.30
2019-05-19T08:38:30.982Z,9.77
2019-05-19T08:40:06.353Z,10.60
2019-05-19T08:41:41.716Z,10.03
2019-05-19T08:43:17.439Z,10.03
2019-05-19T08:44:52.797Z,10.57
2019-05-19T08:46:28.393Z,9.83
2019-05-19T08:48:03.969Z,10.77
2019-05-19T08:49:38.932Z,10.30
2019-05-19T08:51:14.285Z,10.73
2019-05-19T08:52:49.520Z,9.77
2019-05-19T08:54:24.876Z,9.30
2019-05-19T08:55:59.848Z,10.70
2019-05-19T08:57:35.196Z,10.07
2019-05-19T08:59:09.948Z,10.20
2019-05-19T09:00:45.134Z,9.67
2019-05-19T09:02:19.523Z,10.47
2019-05-19T09:03:54.685Z,10.00
2019-05-19T09:05:29.096Z,10.47
2019-05-19T09:07:04.295Z,9.33
2019-05-19T09:08:39.106Z,9.97
2019-05-19T09:10:15.061Z,9.83
2019-05-19T09:11:49.512Z,9.67
2019-05-19T09:13:24.419Z,9.30
2019-05-19T09:14:58.827Z,9.10
2019-05-19T09:16:33.983Z,9.40
2019-05-19T09:18:08.396Z,9.60
2019-05-19T09:19:43.416Z,9.17
2019-05-19T09:21:17.864Z,8.73
2019-05-19T09:22:53.439Z,10.20
2019-05-19T09:24:30.519Z,9.10
2019-05-19T09:26:04.542Z,9.57
2019-05-19T09:27:38.965Z,9.03
2019-05-19T09:29:13.929Z,8.47
2019-05-19T09:30:48.413Z,8.97
2019-05-19T09:32:23.588Z,9.53
2019-05-19T09:33:58.102Z,9.00
2019-05-19T09:35:33.309Z,8.83
2019-05-19T09:37:07.682Z,9.17
2019-05-19T09:38:42.626Z,9.27
2019-05-19T09:40:17.251Z,9.53
2019-05-19T09:41:52.536Z,8.67
2019-05-19T09:43:27.183Z,8.50
2019-05-19T09:45:02.568Z,8.37
2019-05-19T09:46:37.031Z,8.17
2019-05-19T09:48:12.281Z,9.03
2019-05-19T09:49:46.707Z,7.97
2019-05-19T09:51:21.690Z,9.37
2019-05-19T09:52:56.111Z,8.80
2019-05-19T09:54:44.173Z,8.83
2019-05-19T09:56:09.134Z,8.67
2019-05-19T09:57:45.021Z,8.50
2019-05-19T09:59:19.970Z,8.87
2019-05-19T10:00:55.316Z,8.87
2019-05-19T10:02:30.363Z,8.63
2019-05-19T10:04:07.152Z,8.57
2019-05-19T10:05:42.506Z,9.30
2019-05-19T10:07:17.934Z,8.53
2019-05-19T10:09:00.893Z,9.47
2019-05-19T10:11:18.753Z,8.33
2019-05-19T10:12:53.729Z,8.70
2019-05-19T10:14:28.417Z,8.50
2019-05-19T10:16:03.408Z,8.17
2019-05-19T10:17:37.819Z,8.37
2019-05-19T10:19:13.007Z,8.40
2019-05-19T10:20:50.387Z,8.17
2019-05-19T10:22:25.317Z,7.97
2019-05-19T10:24:00.754Z,7.60
2019-05-19T10:25:36.299Z,7.87
2019-05-19T10:27:11.101Z,8.10
2019-05-19T10:28:46.625Z,7.70
2019-05-19T10:30:21.930Z,8.13
2019-05-19T10:31:57.460Z,8.00
2019-05-19T10:33:32.479Z,8.00
2019-05-19T10:35:08.841Z,7.87
2019-05-19T10:36:43.857Z,8.67
2019-05-19T10:38:18.806Z,7.30
2019-05-19T10:39:53.289Z,7.27
2019-05-19T10:41:28.294Z,6.90
2019-05-19T10:46:05.859Z,6.73
2019-05-19T10:47:47.251Z,7.43
2019-05-19T10:49:30.533Z,6.90
2019-05-19T10:51:14.152Z,7.73
2019-05-19T10:53:05.576Z,6.97
2019-05-19T10:55:02.148Z,6.93
2019-05-19T10:56:37.997Z,7.00
2019-05-19T10:58:19.676Z,7.20
2019-05-19T11:00:03.120Z,7.70
2019-05-19T11:01:49.597Z,6.50
2019-05-19T11:03:47.118Z,7.23
2019-05-19T11:05:30.246Z,6.67
2019-05-19T11:09:39.424Z,7.97
2019-05-19T11:11:16.334Z,6.37
2019-05-19T11:13:54.337Z,6.63
2019-05-19T11:15:32.207Z,6.30
2019-05-19T11:17:12.487Z,6.53
2019-05-19T11:18:49.860Z,6.90
2019-05-19T11:20:33.381Z,6.37
2019-05-19T11:22:15.506Z,5.80
2019-05-19T11:24:03.922Z,6.40
2019-05-19T11:26:09.909Z,6.00
2019-05-19T11:27:51.665Z,6.23
2019-05-19T11:29:54.409Z,5.83
2019-05-19T11:31:42.845Z,6.20
2019-05-19T11:33:19.138Z,6.80
2019-05-19T11:34:54.368Z,6.17
2019-05-19T11:36:32.792Z,5.73
2019-05-19T11:38:07.655Z,6.17
2019-05-19T11:39:42.791Z,6.40
2019-05-19T11:41:20.755Z,6.47
2019-05-19T11:42:56.877Z,6.47
2019-05-19T11:44:33.675Z,6.53
2019-05-19T11:46:12.130Z,8.03
2019-05-19T11:47:49.644Z,7.03
2019-05-19T11:49:26.113Z,6.77
2019-05-19T11:51:02.180Z,6.10
2019-05-19T11:52:38.170Z,5.93
2019-05-19T11:54:13.496Z,6.07
2019-05-19T11:55:49.393Z,6.17
2019-05-19T11:57:30.208Z,6.57
2019-05-19T11:59:14.157Z,5.97
2019-05-19T12:00:51.545Z,5.80
2019-05-19T12:02:30.793Z,5.97
2019-05-19T12:04:06.119Z,6.70
2019-05-19T12:05:42.532Z,5.90
2019-05-19T12:07:19.598Z,6.90
2019-05-19T12:08:55.039Z,5.97
2019-05-19T12:10:30.130Z,5.60
2019-05-19T12:12:05.637Z,5.70
2019-05-19T12:13:40.237Z,6.23
2019-05-19T12:15:15.414Z,6.30
2019-05-19T12:16:49.833Z,6.50
2019-05-19T12:18:24.791Z,6.70
2019-05-19T12:19:59.204Z,6.23
2019-05-19T12:21:34.115Z,5.73
2019-05-19T12:23:08.731Z,5.93
2019-05-19T12:24:44.160Z,5.87
2019-05-19T12:26:23.303Z,7.13
2019-05-19T12:27:56.061Z,5.57
2019-05-19T12:29:30.496Z,6.33
2019-05-19T12:31:05.793Z,7.00
2019-05-19T12:32:40.207Z,5.70
2019-05-19T12:34:15.581Z,5.53
2019-05-19T12:35:50.800Z,6.27
2019-05-19T12:37:26.243Z,5.07
2019-05-19T12:39:01.448Z,5.47
2019-05-19T12:40:37.135Z,5.10
2019-05-19T12:42:12.088Z,5.20
2019-05-19T12:43:47.689Z,6.63
2019-05-19T12:45:23.102Z,6.10
2019-05-19T12:46:58.721Z,5.00
2019-05-19T12:48:33.791Z,5.83
2019-05-19T12:50:10.982Z,5.60
2019-05-19T12:51:45.957Z,5.37
2019-05-19T12:53:21.324Z,5.60
2019-05-19T12:54:56.372Z,5.80
2019-05-19T12:56:39.857Z,4.93
2019-05-19T12:58:09.613Z,5.87
2019-05-19T12:59:44.960Z,5.37
2019-05-19T13:01:19.921Z,5.07
2019-05-19T13:02:55.268Z,4.97
2019-05-19T13:04:30.242Z,4.47
2019-05-19T13:06:05.245Z,4.80
2019-05-19T13:07:39.746Z,4.60
2019-05-19T13:09:15.263Z,4.70
2019-05-19T13:10:50.006Z,4.50
2019-05-19T13:12:25.788Z,4.50
2019-05-19T13:14:00.857Z,4.57
2019-05-19T13:15:36.617Z,4.90
2019-05-19T13:17:11.800Z,4.00
2019-05-19T13:18:47.006Z,4.90
2019-05-19T13:20:21.991Z,4.20
2019-05-19T13:21:57.761Z,4.00
2019-05-19T13:23:32.538Z,4.03
2019-05-19T13:25:08.055Z,3.80
2019-05-19T13:26:55.594Z,4.13
2019-05-19T13:28:19.443Z,4.40
2019-05-19T13:29:53.829Z,4.37
2019-05-19T13:31:29.003Z,4.30
2019-05-19T13:33:03.690Z,4.57
2019-05-19T13:34:38.603Z,6.03
2019-05-19T13:36:12.982Z,5.07
2019-05-19T13:37:48.178Z,5.03
2019-05-19T13:39:22.539Z,4.40
2019-05-19T13:40:57.473Z,4.60
2019-05-19T13:42:32.210Z,3.90
2019-05-19T13:44:07.353Z,4.73
2019-05-19T13:45:42.378Z,4.63
2019-05-19T13:47:18.187Z,3.70
2019-05-19T13:48:52.969Z,4.10
2019-05-19T13:50:27.931Z,3.30
2019-05-19T13:52:02.704Z,3.90
2019-05-19T13:53:37.670Z,3.47
2019-05-19T13:55:12.343Z,3.80
2019-05-19T13:56:47.321Z,4.50
2019-05-19T13:58:21.804Z,3.90
2019-05-19T13:59:56.809Z,4.63
2019-05-19T14:01:31.321Z,3.90
2019-05-19T14:03:06.298Z,3.93
2019-05-19T14:04:40.754Z,4.53
2019-05-19T14:06:15.753Z,4.73
2019-05-19T14:07:50.186Z,4.07
2019-05-19T14:09:25.504Z,3.77
2019-05-19T14:11:00.336Z,4.23
2019-05-19T14:12:35.371Z,3.50
2019-05-19T14:14:09.841Z,3.60
2019-05-19T14:15:44.833Z,3.73
2019-05-19T14:17:19.210Z,3.83
2019-05-19T14:18:54.127Z,4.07
2019-05-19T14:20:28.601Z,4.30
2019-05-19T14:22:03.517Z,4.30
2019-05-19T14:23:38.229Z,4.40
2019-05-19T14:25:13.338Z,4.90
2019-05-19T14:26:47.731Z,4.67
2019-05-19T14:28:22.876Z,5.67
2019-05-19T14:29:57.316Z,5.00
2019-05-19T14:31:32.273Z,4.77
2019-05-19T14:33:06.749Z,4.20
2019-05-19T14:34:41.679Z,4.80
2019-05-19T14:36:16.438Z,4.33
2019-05-19T14:37:51.429Z,4.33
2019-05-19T14:39:25.974Z,4.80
2019-05-19T14:41:01.221Z,4.07
2019-05-19T14:43:10.049Z,4.50
2019-05-19T14:44:44.755Z,3.97
2019-05-19T14:46:19.761Z,4.77
2019-05-19T14:47:54.298Z,4.53
2019-05-19T14:49:29.277Z,4.13
2019-05-19T14:51:03.889Z,4.50
2019-05-19T14:52:38.793Z,4.57
2019-05-19T14:54:13.439Z,4.43
2019-05-19T14:55:48.451Z,4.60
2019-05-19T14:57:23.308Z,4.00
2019-05-19T14:58:58.215Z,5.40
2019-05-19T15:00:32.646Z,4.60
2019-05-19T15:02:07.587Z,4.40
2019-05-19T15:03:42.050Z,4.43
2019-05-19T15:05:17.035Z,4.50
2019-05-19T15:06:51.814Z,5.03
2019-05-19T15:08:26.790Z,4.20
2019-05-19T15:10:01.153Z,4.30
2019-05-19T15:11:36.428Z,4.57
2019-05-19T15:13:10.829Z,6.70
2019-05-19T15:14:45.876Z,5.53
2019-05-19T15:16:20.287Z,4.37
2019-05-19T15:17:55.303Z,4.80
2019-05-19T15:19:29.703Z,4.70
2019-05-19T15:21:04.750Z,4.73
2019-05-19T15:22:39.186Z,4.43
2019-05-19T15:24:14.127Z,4.40
2019-05-19T15:25:48.493Z,4.30
2019-05-19T15:27:23.395Z,4.20
2019-05-19T15:28:57.755Z,4.10
2019-05-19T15:30:32.686Z,4.00
2019-05-19T15:32:07.058Z,4.27
2019-05-19T15:33:42.475Z,4.27
2019-05-19T15:35:16.996Z,4.00
2019-05-19T15:36:52.011Z,4.20
2019-05-19T15:38:26.464Z,4.20
2019-05-19T15:40:01.733Z,3.83
2019-05-19T15:41:36.390Z,4.33
2019-05-19T15:43:11.372Z,4.10
2019-05-19T15:44:46.277Z,4.70
2019-05-19T15:46:21.540Z,4.60
2019-05-19T15:47:56.004Z,4.20
2019-05-19T15:49:31.042Z,4.47
2019-05-19T15:51:05.700Z,4.07
2019-05-19T15:52:40.939Z,4.40
2019-05-19T15:54:15.302Z,4.93
2019-05-19T15:55:50.239Z,4.00
2019-05-19T15:57:24.672Z,4.37
2019-05-19T15:58:59.931Z,4.73
2019-05-19T16:00:34.382Z,4.23
2019-05-19T16:02:09.373Z,4.40
2019-05-19T16:03:43.918Z,4.83
2019-05-19T16:05:18.903Z,4.53
2019-05-19T16:06:53.432Z,4.20
2019-05-19T16:08:28.687Z,4.30
2019-05-19T16:10:03.393Z,4.07
2019-05-19T16:11:38.678Z,4.73
2019-05-19T16:13:13.041Z,4.30
2019-05-19T16:14:47.980Z,4.33
2019-05-19T16:16:22.384Z,4.43
2019-05-19T16:17:58.164Z,4.70
2019-05-19T16:19:32.612Z,4.30
2019-05-19T16:21:07.605Z,6.00
2019-05-19T16:22:42.002Z,4.40
2019-05-19T16:24:17.650Z,4.03
2019-05-19T16:25:52.544Z,4.47
2019-05-19T16:27:27.468Z,4.30
2019-05-19T16:29:02.833Z,4.83
2019-05-19T16:30:38.347Z,4.87
2019-05-19T16:32:13.125Z,5.13
2019-05-19T16:33:48.904Z,4.40
2019-05-19T16:35:23.951Z,4.47
2019-05-19T16:37:21.676Z,4.30
2019-05-19T16:40:55.309Z,3.67
2019-05-19T16:42:31.096Z,4.53
2019-05-19T16:44:06.479Z,4.33
2019-05-19T16:45:42.324Z,5.90
2019-05-19T16:47:17.170Z,3.47
2019-05-19T16:48:52.705Z,4.73
2019-05-19T16:50:27.493Z,4.57
2019-05-19T16:52:02.994Z,4.17
2019-05-19T16:53:39.838Z,4.67
2019-05-19T16:55:28.826Z,4.17
2019-05-19T16:57:04.127Z,3.90
2019-05-19T16:58:45.291Z,4.10
2019-05-19T17:00:30.164Z,4.20
2019-05-19T17:02:08.709Z,4.00
2019-05-19T17:03:43.713Z,4.90
2019-05-19T17:08:01.300Z,4.30
2019-05-19T17:10:03.434Z,4.80
2019-05-19T17:11:45.217Z,4.63
2019-05-19T17:13:58.129Z,4.87
2019-05-19T17:15:53.955Z,4.93
2019-05-19T17:17:31.738Z,5.00
2019-05-19T17:19:07.276Z,4.77
2019-05-19T17:20:46.828Z,5.17
2019-05-19T17:22:28.257Z,5.13
2019-05-19T17:24:11.519Z,5.17
2019-05-19T17:25:53.840Z,5.27
2019-05-19T17:27:40.419Z,5.43
2019-05-19T17:29:21.530Z,5.13
2019-05-19T17:31:24.961Z,5.87
2019-05-19T17:33:17.949Z,6.33
2019-05-19T17:35:04.473Z,5.70
2019-05-19T17:36:40.503Z,5.63
2019-05-19T17:38:14.919Z,5.90
2019-05-19T17:39:49.902Z,5.43
2019-05-19T17:41:24.288Z,5.27
2019-05-19T17:42:59.244Z,5.53
2019-05-19T17:44:33.593Z,5.90
2019-05-19T17:46:08.679Z,5.30
2019-05-19T17:47:43.710Z,5.30
2019-05-19T17:49:18.737Z,5.00
2019-05-19T17:50:53.170Z,5.20
2019-05-19T17:52:28.435Z,5.00
2019-05-19T17:54:03.120Z,5.20
2019-05-19T17:55:38.146Z,5.07
2019-05-19T17:57:12.953Z,4.83
2019-05-19T17:58:48.354Z,5.00
2019-05-19T18:00:36.293Z,6.50
2019-05-19T18:02:11.522Z,6.87
2019-05-19T18:03:46.839Z,4.93
2019-05-19T18:05:21.905Z,5.20
2019-05-19T18:06:56.309Z,7.47
2019-05-19T18:08:31.659Z,4.93
2019-05-19T18:10:07.000Z,5.17
2019-05-19T18:11:42.224Z,5.87
2019-05-19T18:13:16.692Z,6.33
2019-05-19T18:14:51.678Z,7.07
2019-05-19T18:16:26.904Z,7.90
2019-05-19T18:18:01.934Z,5.60
2019-05-19T18:19:36.670Z,6.67
2019-05-19T18:21:11.871Z,5.83
2019-05-19T18:22:46.260Z,5.23
2019-05-19T18:24:21.523Z,6.07
2019-05-19T18:25:56.498Z,5.10
2019-05-19T18:27:32.366Z,5.07
2019-05-19T18:29:07.156Z,5.80
2019-05-19T18:30:43.175Z,5.87
2019-05-19T18:32:18.135Z,5.70
2019-05-19T18:33:53.710Z,5.40
2019-05-19T18:35:28.126Z,6.00
2019-05-19T18:37:03.219Z,6.33
2019-05-19T18:38:37.607Z,5.85
2019-05-19T18:40:12.936Z,7.73
2019-05-19T18:41:47.491Z,6.20
2019-05-19T18:43:22.532Z,9.27
2019-05-19T18:44:56.919Z,9.47
2019-05-19T18:46:32.119Z,8.87
2019-05-19T18:48:06.858Z,6.57
2019-05-19T18:49:41.787Z,5.90
2019-05-19T18:51:16.174Z,6.03
2019-05-19T18:52:51.086Z,5.90
2019-05-19T18:54:25.749Z,6.10
2019-05-19T18:56:00.733Z,5.80
2019-05-19T18:57:35.198Z,6.93
2019-05-19T18:59:10.110Z,7.20
2019-05-19T19:00:44.566Z,6.37
2019-05-19T19:02:19.914Z,6.70
2019-05-19T19:03:54.330Z,7.50
2019-05-19T19:05:29.319Z,7.37
2019-05-19T19:07:03.788Z,6.50
2019-05-19T19:08:38.702Z,6.87
2019-05-19T19:10:13.162Z,8.50
2019-05-19T19:11:48.070Z,6.87
2019-05-19T19:13:22.514Z,6.80
2019-05-19T19:14:57.463Z,7.00
2019-05-19T19:16:31.819Z,7.37
2019-05-19T19:18:06.740Z,6.40
2019-05-19T19:19:41.423Z,7.73
2019-05-19T19:21:16.338Z,6.77
2019-05-19T19:22:51.144Z,6.20
2019-05-19T19:24:26.088Z,7.00
2019-05-19T19:26:00.527Z,8.30
2019-05-19T19:27:35.443Z,7.10
2019-05-19T19:29:10.114Z,8.07
2019-05-19T19:30:45.371Z,6.73
2019-05-19T19:32:19.749Z,7.23
2019-05-19T19:33:54.946Z,6.83
2019-05-19T19:35:38.286Z,7.97
2019-05-19T19:37:06.119Z,6.87
2019-05-19T19:38:40.779Z,7.30
2019-05-19T19:40:19.495Z,6.63
2019-05-19T19:41:54.162Z,6.73
2019-05-19T19:43:29.155Z,6.40
2019-05-19T19:45:03.795Z,6.90
2019-05-19T19:46:38.787Z,5.90
2019-05-19T19:48:13.198Z,7.10
2019-05-19T19:49:48.432Z,7.07
2019-05-19T19:51:23.164Z,6.67
2019-05-19T19:52:58.439Z,7.63
2019-05-19T19:54:33.091Z,6.90
2019-05-19T19:56:08.014Z,7.43
2019-05-19T19:57:42.760Z,7.33
2019-05-19T19:59:17.695Z,7.50
2019-05-19T20:00:52.084Z,7.00
2019-05-19T20:02:26.998Z,8.33
2019-05-19T20:04:01.385Z,8.13
2019-05-19T20:05:36.380Z,7.70
2019-05-19T20:07:11.078Z,8.00
2019-05-19T20:08:46.332Z,7.43
2019-05-19T20:10:21.030Z,7.33
2019-05-19T20:11:55.974Z,7.83
2019-05-19T20:13:30.354Z,6.93
2019-05-19T20:15:05.451Z,8.13
2019-05-19T20:16:39.845Z,6.60
2019-05-19T20:18:14.834Z,7.47
2019-05-19T20:19:49.209Z,7.00
2019-05-19T20:21:24.115Z,6.47
2019-05-19T20:22:58.499Z,7.43
2019-05-19T20:24:33.731Z,6.63
2019-05-19T20:26:08.458Z,7.43
2019-05-19T20:27:43.442Z,7.93
2019-05-19T20:29:17.826Z,8.10
2019-05-19T20:30:52.776Z,10.70
2019-05-19T20:32:27.536Z,8.33
2019-05-19T20:34:02.795Z,8.13
2019-05-19T20:35:37.151Z,9.47
2019-05-19T20:37:15.141Z,8.60
2019-05-19T20:38:48.177Z,9.50
2019-05-19T20:40:23.395Z,8.17
2019-05-19T20:41:57.985Z,7.60
2019-05-19T20:43:32.908Z,8.17
2019-05-19T20:45:08.173Z,8.53
2019-05-19T20:46:43.137Z,8.13
2019-05-19T20:48:17.585Z,8.47
2019-05-19T20:49:52.512Z,7.87
2019-05-19T20:51:27.467Z,8.80
2019-05-19T20:53:02.549Z,8.37
2019-05-19T20:54:37.211Z,8.63
2019-05-19T20:56:12.434Z,8.87
2019-05-19T20:57:46.789Z,8.80
2019-05-19T20:59:21.988Z,7.87
2019-05-19T21:00:56.714Z,8.47
2019-05-19T21:02:31.704Z,8.63
2019-05-19T21:04:06.138Z,9.27
2019-05-19T21:05:41.379Z,8.60
2019-05-19T21:07:15.740Z,7.90
2019-05-19T21:08:50.658Z,8.27
2019-05-19T21:10:25.405Z,8.10